Koushinmaru No.5 — JL6695 — position and weather

sailwx.info

Track history (hours):
 
Tides and Currents Weather Stations Pressure Air Temp Water Temp Dewpoint Dewpoint Depression Visibility Wind Speed Wind Dir Waves Ship Positions

Koushinmaru No.5

Last reported at 2016-May-06 04:33 UTC. Time now 2016-May-06 05:34 UTC.
Position N 35°22' E 139°51'.

Length 75 m; draft 4.8 m.

Type: Cargo ship. MMSI: 431301703.

Date/timePositionNaut miles runAvg speedWind from/ knotsBaromVisibWave heightAir tempDewpointWater temp
2016-May-06 04:33N 35°22' E 139°51'1 1.3
2016-May-06 03:33N 35°22' E 139°50'0 0.1
2016-May-06 02:33N 35°22' E 139°49'0 0.1
2016-May-06 01:33N 35°22' E 139°49'0 0.0
2016-May-06 00:33N 35°22' E 139°49'0 0.0
2016-May-05 23:33N 35°22' E 139°49'0 0.0
2016-May-05 22:33N 35°22' E 139°49'0 0.0
2016-May-05 21:33N 35°22' E 139°49'4 4.2
2016-May-05 20:33N 35°20' E 139°45'10 9.6
2016-May-05 19:33N 35°11' E 139°47'1110.7
2016-May-05 18:32N 35°00' E 139°44'23 7.7
2016-May-05 15:30N 35°01' E 140°12'13 9.9
2016-May-05 14:11N 35°09' E 140°25'710.8
2016-May-05 13:33N 35°14' E 140°30'1010.5
2016-May-05 12:33N 35°23' E 140°37'1010.4
2016-May-05 11:33N 35°31' E 140°45'1010.2
2016-May-05 10:33N 35°39' E 140°53'12 9.1
2016-May-05 09:15N 35°51' E 140°49'7 6.9
2016-May-05 08:11N 35°56' E 140°42'2 2.5
2016-May-05 07:30N 35°56' E 140°40'0 0.0
2016-May-05 00:05N 35°56' E 140°40'  
2016-May-02 08:08N 35°56' E 140°40'0 0.0
2016-May-01 21:07N 35°55' E 140°40'0 0.1
2016-May-01 20:31N 35°56' E 140°40'5 4.9
2016-May-01 19:29N 35°55' E 140°46'1211.2
2016-May-01 18:23N 35°44' E 140°54'3411.2
2016-May-01 15:19N 35°15' E 140°33'2111.9
2016-May-01 13:33N 35°01' E 140°13'1511.8
2016-May-01 12:15N 34°52' E 139°58'16 8.9
2016-May-01 10:30N 35°03' E 139°44'1111.3
2016-May-01 09:32N 35°14' E 139°46'1111.0
2016-May-01 08:33N 35°25' E 139°43'7 7.2
2016-May-01 07:33N 35°22' E 139°51'0 0.0
2016-Apr-30 22:33N 35°22' E 139°51'0 0.3
2016-Apr-30 21:34N 35°22' E 139°51'1 1.4
2016-Apr-30 20:33N 35°22' E 139°49'0 0.0
2016-Apr-30 19:34N 35°22' E 139°49'0 0.0
2016-Apr-30 18:33N 35°22' E 139°49'0 0.0
2016-Apr-30 17:33N 35°22' E 139°49'0 0.0
2016-Apr-30 16:33N 35°22' E 139°49'0 0.0
2016-Apr-30 15:33N 35°22' E 139°49'0 0.0
2016-Apr-30 14:33N 35°22' E 139°49'0 0.0
2016-Apr-30 13:33N 35°22' E 139°49'0 0.0
2016-Apr-30 12:33N 35°22' E 139°49'0 0.0
2016-Apr-30 11:33N 35°22' E 139°49'0 0.0
2016-Apr-30 10:33N 35°22' E 139°49'0 0.0
2016-Apr-30 09:33N 35°22' E 139°49'0 0.0
2016-Apr-30 08:33N 35°22' E 139°49'4 4.4
2016-Apr-30 07:33N 35°20' E 139°45'10 9.9
2016-Apr-30 06:34N 35°11' E 139°47'1410.5
2016-Apr-30 05:16N 34°57' E 139°44'53 9.3
2016-Apr-29 23:32N 35°25' E 140°40'32 9.6
2016-Apr-29 20:10N 35°57' E 140°44'3 5.4
2016-Apr-29 19:33N 35°55' E 140°41'0 0.0
2016-Apr-29 18:33N 35°55' E 140°41'0 0.0
2016-Apr-29 17:33N 35°55' E 140°41'0 0.0
2016-Apr-29 16:33N 35°55' E 140°41'0 0.0
2016-Apr-29 15:33N 35°55' E 140°41'0 0.0
2016-Apr-29 14:33N 35°55' E 140°41'0 0.0
2016-Apr-29 13:33N 35°55' E 140°41'0 0.0
2016-Apr-28 22:33N 35°55' E 140°41'0 0.0
2016-Apr-28 08:21N 35°55' E 140°41'0 0.0
2016-Apr-28 07:33N 35°55' E 140°41'1 0.1
2016-Apr-27 22:14N 35°56' E 140°40'0 0.0
2016-Apr-27 18:33N 35°56' E 140°40'3 3.3
2016-Apr-27 17:33N 35°58' E 140°43'29 9.3
2016-Apr-27 14:29N 35°29' E 140°44'1712.0
2016-Apr-27 13:05N 35°16' E 140°32'2112.6
2016-Apr-27 11:25N 35°02' E 140°13'1511.5
2016-Apr-27 10:07N 34°53' E 139°58'810.6
2016-Apr-27 09:23N 34°53' E 139°48'1210.3
2016-Apr-27 08:14N 35°04' E 139°44'812.1
2016-Apr-27 07:32N 35°12' E 139°46'1111.2
2016-Apr-27 06:33N 35°23' E 139°42'1211.6
2016-Apr-27 05:33N 35°31' E 139°52'11 5.5
2016-Apr-27 03:33N 35°41' E 139°59'0 0.0
2016-Apr-27 02:33N 35°41' E 139°59'0 0.0
2016-Apr-27 01:33N 35°41' E 139°59'0 0.0
2016-Apr-27 00:33N 35°41' E 139°59'0 0.0
2016-Apr-26 23:33N 35°41' E 139°59'0 0.0
2016-Apr-26 22:33N 35°41' E 139°59'2 2.3
2016-Apr-26 21:33N 35°38' E 139°59'2 2.2
2016-Apr-26 20:33N 35°36' E 139°58'0 0.0
2016-Apr-26 19:33N 35°36' E 139°58'0 0.0
2016-Apr-26 18:33N 35°36' E 139°58'0 0.0
2016-Apr-26 17:33N 35°36' E 139°58'0 0.0
2016-Apr-26 16:33N 35°36' E 139°58'0 0.0
2016-Apr-26 15:33N 35°36' E 139°58'0 0.0
2016-Apr-26 14:33N 35°36' E 139°58'0 0.0
2016-Apr-26 13:33N 35°36' E 139°58'0 0.1
2016-Apr-26 12:34N 35°36' E 139°58'1110.8
2016-Apr-26 11:33N 35°27' E 139°50'1010.5
2016-Apr-26 10:33N 35°18' E 139°45'1010.5
2016-Apr-26 09:33N 35°08' E 139°45'  
Track history (hours):
 
Tides and Currents Weather Stations Pressure Air Temp Water Temp Dewpoint Dewpoint Depression Visibility Wind Speed Wind Dir Waves Ship Positions

Koushinmaru No.5

Last reported at 2016-May-06 04:33 UTC. Time now 2016-May-06 05:34 UTC.
Position N 35°22' E 139°51'.

Length 75 m; draft 4.8 m.

Type: Cargo ship. MMSI: 431301703.

Date/timePositionNaut miles runAvg speedWind from/ knotsBaromVisibWave heightAir tempDewpointWater temp
2016-May-06 04:33N 35°22' E 139°51'1 1.3
2016-May-06 03:33N 35°22' E 139°50'0 0.1
2016-May-06 02:33N 35°22' E 139°49'0 0.1
2016-May-06 01:33N 35°22' E 139°49'0 0.0
2016-May-06 00:33N 35°22' E 139°49'0 0.0
2016-May-05 23:33N 35°22' E 139°49'0 0.0
2016-May-05 22:33N 35°22' E 139°49'0 0.0
2016-May-05 21:33N 35°22' E 139°49'4 4.2
2016-May-05 20:33N 35°20' E 139°45'10 9.6
2016-May-05 19:33N 35°11' E 139°47'1110.7
2016-May-05 18:32N 35°00' E 139°44'23 7.7
2016-May-05 15:30N 35°01' E 140°12'13 9.9
2016-May-05 14:11N 35°09' E 140°25'710.8
2016-May-05 13:33N 35°14' E 140°30'1010.5
2016-May-05 12:33N 35°23' E 140°37'1010.4
2016-May-05 11:33N 35°31' E 140°45'1010.2
2016-May-05 10:33N 35°39' E 140°53'12 9.1
2016-May-05 09:15N 35°51' E 140°49'7 6.9
2016-May-05 08:11N 35°56' E 140°42'2 2.5
2016-May-05 07:30N 35°56' E 140°40'0 0.0
2016-May-05 00:05N 35°56' E 140°40'  
2016-May-02 08:08N 35°56' E 140°40'0 0.0
2016-May-01 21:07N 35°55' E 140°40'0 0.1
2016-May-01 20:31N 35°56' E 140°40'5 4.9
2016-May-01 19:29N 35°55' E 140°46'1211.2
2016-May-01 18:23N 35°44' E 140°54'3411.2
2016-May-01 15:19N 35°15' E 140°33'2111.9
2016-May-01 13:33N 35°01' E 140°13'1511.8
2016-May-01 12:15N 34°52' E 139°58'16 8.9
2016-May-01 10:30N 35°03' E 139°44'1111.3
2016-May-01 09:32N 35°14' E 139°46'1111.0
2016-May-01 08:33N 35°25' E 139°43'7 7.2
2016-May-01 07:33N 35°22' E 139°51'0 0.0
2016-Apr-30 22:33N 35°22' E 139°51'0 0.3
2016-Apr-30 21:34N 35°22' E 139°51'1 1.4
2016-Apr-30 20:33N 35°22' E 139°49'0 0.0
2016-Apr-30 19:34N 35°22' E 139°49'0 0.0
2016-Apr-30 18:33N 35°22' E 139°49'0 0.0
2016-Apr-30 17:33N 35°22' E 139°49'0 0.0
2016-Apr-30 16:33N 35°22' E 139°49'0 0.0
2016-Apr-30 15:33N 35°22' E 139°49'0 0.0
2016-Apr-30 14:33N 35°22' E 139°49'0 0.0
2016-Apr-30 13:33N 35°22' E 139°49'0 0.0
2016-Apr-30 12:33N 35°22' E 139°49'0 0.0
2016-Apr-30 11:33N 35°22' E 139°49'0 0.0
2016-Apr-30 10:33N 35°22' E 139°49'0 0.0
2016-Apr-30 09:33N 35°22' E 139°49'0 0.0
2016-Apr-30 08:33N 35°22' E 139°49'4 4.4
2016-Apr-30 07:33N 35°20' E 139°45'10 9.9
2016-Apr-30 06:34N 35°11' E 139°47'1410.5
2016-Apr-30 05:16N 34°57' E 139°44'53 9.3
2016-Apr-29 23:32N 35°25' E 140°40'32 9.6
2016-Apr-29 20:10N 35°57' E 140°44'3 5.4
2016-Apr-29 19:33N 35°55' E 140°41'0 0.0
2016-Apr-29 18:33N 35°55' E 140°41'0 0.0
2016-Apr-29 17:33N 35°55' E 140°41'0 0.0
2016-Apr-29 16:33N 35°55' E 140°41'0 0.0
2016-Apr-29 15:33N 35°55' E 140°41'0 0.0
2016-Apr-29 14:33N 35°55' E 140°41'0 0.0
2016-Apr-29 13:33N 35°55' E 140°41'0 0.0
2016-Apr-28 22:33N 35°55' E 140°41'0 0.0
2016-Apr-28 08:21N 35°55' E 140°41'0 0.0
2016-Apr-28 07:33N 35°55' E 140°41'1 0.1
2016-Apr-27 22:14N 35°56' E 140°40'0 0.0
2016-Apr-27 18:33N 35°56' E 140°40'3 3.3
2016-Apr-27 17:33N 35°58' E 140°43'29 9.3
2016-Apr-27 14:29N 35°29' E 140°44'1712.0
2016-Apr-27 13:05N 35°16' E 140°32'2112.6
2016-Apr-27 11:25N 35°02' E 140°13'1511.5
2016-Apr-27 10:07N 34°53' E 139°58'810.6
2016-Apr-27 09:23N 34°53' E 139°48'1210.3
2016-Apr-27 08:14N 35°04' E 139°44'812.1
2016-Apr-27 07:32N 35°12' E 139°46'1111.2
2016-Apr-27 06:33N 35°23' E 139°42'1211.6
2016-Apr-27 05:33N 35°31' E 139°52'11 5.5
2016-Apr-27 03:33N 35°41' E 139°59'0 0.0
2016-Apr-27 02:33N 35°41' E 139°59'0 0.0
2016-Apr-27 01:33N 35°41' E 139°59'0 0.0
2016-Apr-27 00:33N 35°41' E 139°59'0 0.0
2016-Apr-26 23:33N 35°41' E 139°59'0 0.0
2016-Apr-26 22:33N 35°41' E 139°59'2 2.3
2016-Apr-26 21:33N 35°38' E 139°59'2 2.2
2016-Apr-26 20:33N 35°36' E 139°58'0 0.0
2016-Apr-26 19:33N 35°36' E 139°58'0 0.0
2016-Apr-26 18:33N 35°36' E 139°58'0 0.0
2016-Apr-26 17:33N 35°36' E 139°58'0 0.0
2016-Apr-26 16:33N 35°36' E 139°58'0 0.0
2016-Apr-26 15:33N 35°36' E 139°58'0 0.0
2016-Apr-26 14:33N 35°36' E 139°58'0 0.0
2016-Apr-26 13:33N 35°36' E 139°58'0 0.1
2016-Apr-26 12:34N 35°36' E 139°58'1110.8
2016-Apr-26 11:33N 35°27' E 139°50'1010.5
2016-Apr-26 10:33N 35°18' E 139°45'1010.5
2016-Apr-26 09:33N 35°08' E 139°45'  

Dump ship's entire track history